Key West, FL

2:44 PM EST on December 20, 2014 (GMT -0500)
Big Coppitt Key Gulfside | Change Station
CLOSE
Current Station
Personal Weather Station
Location: Key West, FL
Elevation: 31 ft
Nearby Weather Stations

Elev 31 ft 24.60 °N, 81.67 °W | Updated 2 minutes ago

Mostly Cloudy
Mostly Cloudy
80.8 °F
Feels Like 85 °F
N
4.2
Wind Variable Wind from WSW

Today
High -- | Low -- °F
--% Chance of Precip.
Yesterday
High -- | Low -- °F
Precip. -- in
7:05 AM 5:42 PM
Waning Crescent, 2% visible
Pressure 30.02 in
Visibility 10.0 miles
Clouds Few 2500 ft
Scattered Clouds 3500 ft
Mostly Cloudy 6000 ft
Heat Index 85 °F
Dew Point 72 °F
Humidity 74%
Rainfall 0.00 in
Snow Depth Not available.
UV 3 out of 12
Pollen 3.90 out of 12
Air Quality Not available.
Flu Activity Not available.
METAR KNQX 201853Z 13011KT 10SM FEW025 SCT035 BKN060 26/20 A3002 RMK AO2 SLP165 T02610200

More Conditions Fewer Conditions

Pressure 30.02 in
Visibility 10.0 miles
Clouds Few 2500 ft
Scattered Clouds 3500 ft
Mostly Cloudy 6000 ft
Heat Index 85 °F
Dew Point 72 °F
Humidity 74%
Rainfall 0.00 in
Snow Depth Not available.
UV 3 out of 12
Pollen 3.90 out of 12
Air Quality Not available.
Flu Activity Not available.
METAR KNQX 201853Z 13011KT 10SM FEW025 SCT035 BKN060 26/20 A3002 RMK AO2 SLP165 T02610200

More Conditions Fewer Conditions

10-Day Weather Forecast

Almanac

Astronomy

Dec. 20, 2014 Rise Set
Actual Time
Civil Twilight
Nautical Twilight
Astronomical Twilight
Moon
Length of Visible Light
Length of Day
Tomorrow will be .
, % of the Moon is Illuminated

Today's Extremes

State Highs State Lows

Community

WunderPhotos

Upload Photos

1,779,257 photos uploaded!

WunderBlogs® & News

Nearby

Air Quality

  Air Quality AQ Index Pollutant
Not available.

Snow Depth

Station Depth Elevation

Earthquake Activity

City Distance Mag. Time & Date
Minimum magnitude displayed is 2.5.

Coastal Water Temperatures

Place Temperature

Nearby Weather Stations